Time;durP1;ratioP1;P1;durP2;ratioP2;P2;SDS_P1;SDS_P2;PMS_P1;PMS_P2;Temp;Humidity;BMP_temperature;BMP_pressure;BME280_temperature;BME280_humidity;BME280_pressure;Samples;Min_cycle;Max_cycle;Signal;HPM_P1;HPM_P2
2023/01/29 00:00:09;;;;;;;9.65;6.65;;;3.60;99.90;;;;;;4999704;28;20222;-66
2023/01/29 00:02:40;;;;;;;8.55;6.93;;;3.60;99.90;;;;;;5010942;28;20305;-66
2023/01/29 00:05:09;;;;;;;10.10;7.80;;;3.60;99.90;;;;;;5004618;28;20612;-66
2023/01/29 00:07:55;;;;;;;10.48;7.18;;;3.60;99.90;;;;;;5023643;28;20193;-66
2023/01/29 00:10:25;;;;;;;11.20;6.57;;;3.60;99.90;;;;;;5003424;28;20220;-66
2023/01/29 00:12:53;;;;;;;11.38;7.50;;;3.60;99.90;;;;;;4996387;28;20198;-66
2023/01/29 00:15:22;;;;;;;9.02;6.88;;;3.60;99.90;;;;;;5002648;28;20801;-65
2023/01/29 00:17:50;;;;;;;9.57;6.57;;;3.60;99.90;;;;;;5011737;28;20252;-66
2023/01/29 00:20:19;;;;;;;9.70;6.80;;;3.60;99.90;;;;;;4990351;28;20581;-66
2023/01/29 00:22:47;;;;;;;10.23;6.93;;;3.60;99.90;;;;;;5000593;28;20201;-66
2023/01/29 00:25:15;;;;;;;10.88;7.18;;;3.60;99.90;;;;;;5002897;28;20227;-66
2023/01/29 00:27:45;;;;;;;8.90;6.80;;;3.60;99.90;;;;;;4998346;28;20189;-66
2023/01/29 00:30:17;;;;;;;10.68;6.68;;;3.60;99.90;;;;;;5000453;28;20279;-66
2023/01/29 00:32:46;;;;;;;11.00;8.10;;;3.60;99.90;;;;;;5017098;28;20331;-66
2023/01/29 00:35:15;;;;;;;11.48;7.82;;;3.60;99.90;;;;;;5007178;28;20223;-66
2023/01/29 00:37:43;;;;;;;11.27;7.03;;;3.60;99.90;;;;;;5003520;28;20206;-67
2023/01/29 00:40:12;;;;;;;8.80;7.13;;;3.60;99.90;;;;;;5009223;28;20246;-67
2023/01/29 00:45:31;;;;;;;10.65;7.43;;;3.50;99.90;;;;;;5000973;28;20222;-66
2023/01/29 00:47:59;;;;;;;10.88;7.53;;;3.60;99.90;;;;;;5000427;28;20285;-66
2023/01/29 00:50:28;;;;;;;9.48;7.70;;;3.60;99.90;;;;;;5000705;28;20306;-66
2023/01/29 00:52:56;;;;;;;11.05;7.25;;;3.50;99.90;;;;;;4995260;28;20662;-66
2023/01/29 00:55:25;;;;;;;10.90;7.85;;;3.50;99.90;;;;;;5017789;28;20227;-66
2023/01/29 00:57:53;;;;;;;10.15;7.47;;;3.50;99.90;;;;;;5014135;28;20198;-67
2023/01/29 01:00:23;;;;;;;10.80;7.88;;;3.60;99.90;;;;;;4997309;28;20624;-66
2023/01/29 01:03:07;;;;;;;11.20;7.95;;;3.50;99.90;;;;;;5008727;28;20202;-66
2023/01/29 01:05:35;;;;;;;9.27;6.60;;;3.50;99.90;;;;;;5013960;28;20454;-66
2023/01/29 01:10:19;;;;;;;10.55;7.72;;;3.50;99.90;;;;;;5008142;28;20204;-66
2023/01/29 01:11:02;;;;;;;9.18;7.10;;;3.50;99.90;;;;;;4998653;28;20228;-67
2023/01/29 01:13:32;;;;;;;11.80;7.65;;;3.50;99.90;;;;;;5018933;28;20732;-66
2023/01/29 01:16:01;;;;;;;10.43;7.80;;;3.50;99.90;;;;;;4998894;28;20238;-66
2023/01/29 01:18:31;;;;;;;11.05;8.25;;;3.60;99.90;;;;;;4993667;28;20560;-66
2023/01/29 01:21:00;;;;;;;10.25;7.70;;;3.60;99.90;;;;;;4992348;28;20230;-65
2023/01/29 01:23:28;;;;;;;12.40;8.43;;;3.50;99.90;;;;;;5001790;28;20216;-66
2023/01/29 01:25:56;;;;;;;11.45;7.70;;;3.50;99.90;;;;;;5007598;28;20245;-65
2023/01/29 01:28:25;;;;;;;11.07;8.52;;;3.50;99.90;;;;;;5011665;28;20259;-67
2023/01/29 01:30:54;;;;;;;8.65;6.82;;;3.50;99.90;;;;;;5009462;28;20519;-66
2023/01/29 01:33:23;;;;;;;10.85;7.32;;;3.50;99.90;;;;;;5005486;28;20227;-64
2023/01/29 01:35:52;;;;;;;9.75;6.90;;;3.50;99.90;;;;;;4994635;28;20565;-66
2023/01/29 01:38:22;;;;;;;8.55;6.43;;;3.50;99.90;;;;;;5005279;28;20193;-66
2023/01/29 01:40:50;;;;;;;11.73;7.82;;;3.50;99.90;;;;;;5001041;28;20225;-67
2023/01/29 01:43:18;;;;;;;10.38;7.45;;;3.50;99.90;;;;;;5006072;28;20209;-68
2023/01/29 01:45:47;;;;;;;11.10;7.55;;;3.50;99.90;;;;;;5006095;28;20257;-66
2023/01/29 01:48:19;;;;;;;9.02;6.65;;;3.50;99.90;;;;;;4997419;28;20697;-66
2023/01/29 01:50:53;;;;;;;11.57;7.50;;;3.50;99.90;;;;;;5001380;28;20593;-67
2023/01/29 01:53:26;;;;;;;10.00;7.30;;;3.50;99.90;;;;;;5003143;28;20332;-66
2023/01/29 01:56:00;;;;;;;9.43;6.70;;;3.50;99.90;;;;;;5010407;28;20222;-66
2023/01/29 01:58:34;;;;;;;11.32;8.23;;;3.50;99.90;;;;;;4999829;28;20248;-66
2023/01/29 02:01:04;;;;;;;8.88;6.82;;;3.50;99.90;;;;;;4978977;28;20539;-66
2023/01/29 02:09:32;;;;;;;12.02;8.48;;;3.50;99.90;;;;;;5022122;28;20251;-65
2023/01/29 02:12:01;;;;;;;13.50;8.88;;;3.50;99.90;;;;;;4996426;28;20198;-66
2023/01/29 02:14:30;;;;;;;10.55;8.10;;;3.50;99.90;;;;;;5005460;28;20295;-66
2023/01/29 02:17:00;;;;;;;11.88;6.72;;;3.50;99.90;;;;;;5004793;28;20202;-66
2023/01/29 02:19:45;;;;;;;11.63;7.72;;;3.50;99.90;;;;;;4999279;28;20237;-66
2023/01/29 02:22:42;;;;;;;11.40;7.70;;;3.50;99.90;;;;;;5015734;28;20284;-66
2023/01/29 02:25:25;;;;;;;11.77;8.13;;;3.50;99.90;;;;;;5022881;28;20216;-67
2023/01/29 02:28:25;;;;;;;10.15;7.03;;;3.50;99.90;;;;;;5018222;28;20229;-66
2023/01/29 02:31:02;;;;;;;11.57;7.18;;;3.50;99.90;;;;;;4996238;28;20227;-66
2023/01/29 02:33:40;;;;;;;10.55;7.50;;;3.50;99.90;;;;;;4999315;28;20249;-66
2023/01/29 02:36:15;;;;;;;13.00;8.45;;;3.50;99.90;;;;;;5023611;28;20224;-66
2023/01/29 02:38:50;;;;;;;9.95;6.90;;;3.50;99.90;;;;;;5005532;28;20724;-67
2023/01/29 02:41:26;;;;;;;10.50;7.10;;;3.50;99.90;;;;;;4999678;28;20421;-67
2023/01/29 02:44:02;;;;;;;10.45;7.25;;;3.50;99.90;;;;;;5007589;28;20790;-67
2023/01/29 02:46:35;;;;;;;11.80;7.90;;;3.40;99.90;;;;;;4997794;28;20217;-66
2023/01/29 02:49:11;;;;;;;11.23;7.55;;;3.50;99.90;;;;;;4997758;28;20417;-66
2023/01/29 02:51:44;;;;;;;11.90;8.10;;;3.50;99.90;;;;;;4995062;28;20396;-66
2023/01/29 02:54:17;;;;;;;9.77;7.15;;;3.50;99.90;;;;;;4996985;28;20214;-66
2023/01/29 02:56:52;;;;;;;11.32;8.07;;;3.50;99.90;;;;;;5014834;28;20205;-68
2023/01/29 02:59:24;;;;;;;9.55;6.57;;;3.50;99.90;;;;;;4998761;28;20309;-67
2023/01/29 03:01:57;;;;;;;11.40;7.15;;;3.40;99.90;;;;;;5020068;28;20565;-67
2023/01/29 03:04:31;;;;;;;10.75;7.40;;;3.50;99.90;;;;;;5003140;28;20226;-67
2023/01/29 03:07:03;;;;;;;11.57;8.23;;;3.40;99.90;;;;;;5025466;28;20755;-67
2023/01/29 03:09:36;;;;;;;13.07;7.75;;;3.40;99.90;;;;;;5025046;28;20229;-67
2023/01/29 03:12:27;;;;;;;11.57;7.70;;;3.40;99.90;;;;;;5007658;28;20289;-65
2023/01/29 03:15:13;;;;;;;9.60;7.82;;;3.40;99.90;;;;;;5003732;28;20222;-66
2023/01/29 03:17:51;;;;;;;9.13;7.00;;;3.40;99.90;;;;;;5007044;28;20288;-67
2023/01/29 03:20:25;;;;;;;12.18;8.18;;;3.40;99.90;;;;;;5016036;28;20205;-67
2023/01/29 03:23:00;;;;;;;12.25;7.50;;;3.40;99.90;;;;;;5011745;28;20559;-67
2023/01/29 03:34:03;;;;;;;10.93;7.50;;;3.40;99.90;;;;;;4994840;28;20860;-66
2023/01/29 03:36:38;;;;;;;11.57;7.32;;;3.40;99.90;;;;;;5006523;28;20226;-67
2023/01/29 03:39:07;;;;;;;12.48;7.85;;;3.40;99.90;;;;;;4994606;28;20213;-66
2023/01/29 03:41:40;;;;;;;9.60;6.90;;;3.40;99.90;;;;;;5007301;28;20200;-68
2023/01/29 03:44:16;;;;;;;11.93;7.57;;;3.40;99.90;;;;;;5010744;28;20237;-66
2023/01/29 03:46:52;;;;;;;13.52;7.95;;;3.40;99.90;;;;;;5022756;28;20220;-67
2023/01/29 03:49:30;;;;;;;11.90;7.13;;;3.40;99.90;;;;;;5008780;28;20237;-66
2023/01/29 03:52:04;;;;;;;12.02;7.85;;;3.40;99.90;;;;;;5004951;28;20284;-67
2023/01/29 03:54:39;;;;;;;12.27;7.97;;;3.40;99.90;;;;;;5007815;28;20664;-65
2023/01/29 03:57:15;;;;;;;10.15;6.80;;;3.40;99.90;;;;;;5002513;28;20246;-65
2023/01/29 03:59:51;;;;;;;11.10;7.53;;;3.40;99.90;;;;;;4998768;28;20217;-66
2023/01/29 04:02:50;;;;;;;10.00;6.75;;;3.40;99.90;;;;;;5013711;28;20272;-67
2023/01/29 04:05:22;;;;;;;14.80;9.15;;;3.40;99.90;;;;;;4998438;28;20347;-66
2023/01/29 04:08:10;;;;;;;11.10;6.95;;;3.40;99.90;;;;;;4997289;28;20649;-66
2023/01/29 04:10:41;;;;;;;11.80;8.05;;;3.40;99.90;;;;;;4988240;28;20638;-65
2023/01/29 04:13:13;;;;;;;10.32;7.38;;;3.40;99.90;;;;;;5003799;28;20220;-66
2023/01/29 04:15:47;;;;;;;12.00;8.70;;;3.40;99.90;;;;;;5001199;28;20229;-66
2023/01/29 04:18:18;;;;;;;11.65;8.13;;;3.40;99.90;;;;;;5016968;28;20200;-66
2023/01/29 04:21:08;;;;;;;12.70;9.15;;;3.40;99.90;;;;;;5015474;28;20346;-66
2023/01/29 04:23:36;;;;;;;12.43;7.68;;;3.30;99.90;;;;;;4990606;28;20223;-66
2023/01/29 04:26:24;;;;;;;9.40;6.03;;;3.30;99.90;;;;;;5016285;28;20210;-66
2023/01/29 04:29:05;;;;;;;11.15;6.60;;;3.40;99.90;;;;;;5004913;28;20243;-66
2023/01/29 04:31:40;;;;;;;8.45;6.97;;;3.30;99.90;;;;;;4996758;28;20186;-65
2023/01/29 04:34:21;;;;;;;11.20;8.13;;;3.40;99.90;;;;;;4997141;28;20331;-67
2023/01/29 04:37:02;;;;;;;12.65;8.10;;;3.30;99.90;;;;;;5002673;28;20190;-66
2023/01/29 04:39:40;;;;;;;12.10;7.90;;;3.40;99.90;;;;;;5003319;28;20316;-66
2023/01/29 04:42:15;;;;;;;10.27;7.65;;;3.30;99.90;;;;;;5020851;28;20196;-66
2023/01/29 04:44:52;;;;;;;11.25;7.70;;;3.30;99.90;;;;;;5000391;28;20218;-66
2023/01/29 04:47:29;;;;;;;9.43;6.38;;;3.30;99.90;;;;;;4986758;28;20209;-65
2023/01/29 04:50:11;;;;;;;9.23;6.25;;;3.30;99.90;;;;;;4998451;28;20205;-66
2023/01/29 04:52:47;;;;;;;12.68;7.88;;;3.30;99.90;;;;;;5009062;28;20563;-66
2023/01/29 04:55:21;;;;;;;12.90;7.93;;;3.30;99.90;;;;;;5001947;28;20222;-67
2023/01/29 04:57:54;;;;;;;9.98;8.13;;;3.30;99.90;;;;;;4993536;28;20200;-67
2023/01/29 05:00:27;;;;;;;12.50;8.70;;;3.30;99.90;;;;;;4989676;28;20230;-65
2023/01/29 05:02:57;;;;;;;10.55;6.75;;;3.30;99.90;;;;;;5005203;28;20218;-67
2023/01/29 05:05:27;;;;;;;11.02;7.60;;;3.30;99.90;;;;;;5006461;28;20222;-66
2023/01/29 05:07:58;;;;;;;13.40;8.02;;;3.30;99.90;;;;;;5000912;28;20295;-66
2023/01/29 05:10:27;;;;;;;11.10;7.05;;;3.30;99.90;;;;;;4993001;28;20236;-67
2023/01/29 05:12:59;;;;;;;11.68;7.95;;;3.30;99.90;;;;;;5006037;28;20212;-69
2023/01/29 05:15:33;;;;;;;12.82;8.23;;;3.30;99.90;;;;;;5003543;28;20228;-66
2023/01/29 05:18:02;;;;;;;13.55;7.35;;;3.30;99.90;;;;;;5018951;28;20308;-66
2023/01/29 05:20:34;;;;;;;11.57;7.72;;;3.30;99.90;;;;;;5007888;28;20697;-66
2023/01/29 05:23:02;;;;;;;12.23;7.88;;;3.30;99.90;;;;;;5020786;28;20201;-65
2023/01/29 05:25:34;;;;;;;11.82;7.70;;;3.30;99.90;;;;;;5008714;28;20221;-66
2023/01/29 05:28:04;;;;;;;14.57;8.75;;;3.30;99.90;;;;;;5011229;28;20690;-67
2023/01/29 05:30:37;;;;;;;13.50;7.95;;;3.30;99.90;;;;;;5000974;28;20225;-64
2023/01/29 05:33:12;;;;;;;10.95;6.53;;;3.30;99.90;;;;;;5004468;28;20217;-66
2023/01/29 05:35:42;;;;;;;11.85;8.20;;;3.30;99.90;;;;;;4993712;28;20222;-65
2023/01/29 05:38:10;;;;;;;11.35;7.65;;;3.30;99.90;;;;;;5003123;28;20192;-65
2023/01/29 05:40:39;;;;;;;10.85;8.77;;;3.30;99.90;;;;;;5002007;28;20312;-67
2023/01/29 05:43:14;;;;;;;12.45;8.30;;;3.30;99.90;;;;;;4991587;28;20403;-67
2023/01/29 05:45:43;;;;;;;10.63;7.80;;;3.30;99.90;;;;;;4988840;28;20217;-65
2023/01/29 05:48:11;;;;;;;11.80;8.32;;;3.30;99.90;;;;;;5019751;28;20214;-66
2023/01/29 05:50:41;;;;;;;11.55;8.02;;;3.30;99.90;;;;;;5023233;28;20792;-66
2023/01/29 05:53:09;;;;;;;9.77;7.35;;;3.20;99.90;;;;;;5014578;28;20771;-65
2023/01/29 05:55:38;;;;;;;11.05;7.28;;;3.30;99.90;;;;;;5021541;28;20249;-66
2023/01/29 05:58:06;;;;;;;10.73;6.70;;;3.30;99.90;;;;;;5008512;28;20624;-67
2023/01/29 06:00:34;;;;;;;11.32;7.90;;;3.20;99.90;;;;;;5019209;28;20213;-67
2023/01/29 06:03:03;;;;;;;13.13;8.43;;;3.20;99.90;;;;;;4997934;28;20296;-65
2023/01/29 06:05:31;;;;;;;12.73;9.00;;;3.20;99.90;;;;;;4998879;28;20528;-66
2023/01/29 06:08:01;;;;;;;11.52;7.68;;;3.30;99.90;;;;;;5017064;28;20206;-66
2023/01/29 06:10:29;;;;;;;13.60;8.05;;;3.20;99.90;;;;;;5006461;28;20225;-67
2023/01/29 06:12:57;;;;;;;11.10;8.07;;;3.20;99.90;;;;;;5008946;28;20285;-67
2023/01/29 06:15:26;;;;;;;11.50;7.35;;;3.20;99.90;;;;;;5004911;28;20311;-67
2023/01/29 06:17:55;;;;;;;13.90;8.70;;;3.20;99.90;;;;;;5017663;28;20614;-66
2023/01/29 06:20:24;;;;;;;13.77;7.90;;;3.20;99.90;;;;;;4993124;28;20803;-67
2023/01/29 06:22:52;;;;;;;11.60;8.68;;;3.20;99.90;;;;;;4990934;28;20201;-67
2023/01/29 06:25:22;;;;;;;13.55;8.35;;;3.20;99.90;;;;;;4992417;28;20684;-66
2023/01/29 06:27:51;;;;;;;13.60;8.27;;;3.20;99.90;;;;;;4997443;28;20206;-67
2023/01/29 06:30:19;;;;;;;11.95;8.07;;;3.20;99.90;;;;;;4994570;28;20224;-67
2023/01/29 06:32:47;;;;;;;13.32;8.07;;;3.20;99.90;;;;;;5011984;28;20385;-67
2023/01/29 06:35:16;;;;;;;12.43;7.43;;;3.20;99.90;;;;;;5001844;28;20325;-66
2023/01/29 06:37:44;;;;;;;12.35;7.72;;;3.20;99.90;;;;;;5008925;28;20194;-66
2023/01/29 06:40:13;;;;;;;10.57;7.43;;;3.20;99.90;;;;;;4997147;28;20272;-67
2023/01/29 06:42:43;;;;;;;11.70;7.60;;;3.20;99.90;;;;;;5000297;28;20225;-65
2023/01/29 06:45:13;;;;;;;11.13;7.03;;;3.20;99.90;;;;;;4999948;28;20228;-66
2023/01/29 06:47:41;;;;;;;10.07;6.95;;;3.20;99.90;;;;;;5015515;28;20207;-67
2023/01/29 06:50:11;;;;;;;10.95;7.40;;;3.20;99.90;;;;;;4999423;28;20219;-68
2023/01/29 06:52:39;;;;;;;12.43;7.30;;;3.20;99.90;;;;;;4999736;28;20636;-67
2023/01/29 06:55:09;;;;;;;10.50;7.22;;;3.20;99.90;;;;;;4995157;28;21196;-67
2023/01/29 06:57:37;;;;;;;13.13;8.68;;;3.20;99.90;;;;;;4990447;28;20667;-66
2023/01/29 07:00:09;;;;;;;9.70;7.43;;;3.20;99.90;;;;;;4989296;28;20219;-66
2023/01/29 07:02:37;;;;;;;12.63;7.43;;;3.20;99.90;;;;;;4996315;28;20473;-68
2023/01/29 07:05:06;;;;;;;13.60;8.90;;;3.20;99.90;;;;;;5022560;28;20221;-66
2023/01/29 07:07:35;;;;;;;13.23;8.18;;;3.20;99.90;;;;;;5009964;28;20674;-67
2023/01/29 07:10:04;;;;;;;11.50;7.82;;;3.20;99.90;;;;;;5008095;28;20222;-67
2023/01/29 07:12:33;;;;;;;12.15;8.18;;;3.20;99.90;;;;;;5000387;28;20223;-66
2023/01/29 07:15:01;;;;;;;12.68;7.85;;;3.20;99.90;;;;;;5017037;28;20608;-67
2023/01/29 07:17:31;;;;;;;10.73;8.25;;;3.20;99.90;;;;;;5020477;28;20201;-66
2023/01/29 07:19:59;;;;;;;13.07;8.57;;;3.20;99.90;;;;;;5014744;28;20214;-67
2023/01/29 07:22:27;;;;;;;12.00;7.07;;;3.20;99.90;;;;;;4996437;28;20201;-65
2023/01/29 07:24:56;;;;;;;11.18;7.25;;;3.20;99.90;;;;;;4994970;28;20225;-68
2023/01/29 07:27:24;;;;;;;10.68;7.35;;;3.20;99.90;;;;;;4997132;28;20239;-68
2023/01/29 07:29:52;;;;;;;11.60;7.22;;;3.20;99.90;;;;;;5021538;28;20217;-68
2023/01/29 07:32:21;;;;;;;11.60;7.85;;;3.20;99.90;;;;;;5000291;28;20291;-68
2023/01/29 07:34:50;;;;;;;10.85;6.95;;;3.10;99.90;;;;;;4994668;28;20224;-66
2023/01/29 07:37:19;;;;;;;10.20;7.40;;;3.10;99.90;;;;;;4995420;28;20196;-66
2023/01/29 07:39:47;;;;;;;13.75;8.38;;;3.20;99.90;;;;;;5002430;28;20220;-66
2023/01/29 07:42:15;;;;;;;9.02;7.18;;;3.10;99.90;;;;;;4992746;28;20205;-66
2023/01/29 07:44:44;;;;;;;9.60;6.68;;;3.10;99.90;;;;;;4989987;28;20271;-66
2023/01/29 07:47:12;;;;;;;11.32;7.90;;;3.20;99.90;;;;;;4994814;28;20477;-67
2023/01/29 07:49:43;;;;;;;11.35;7.40;;;3.20;99.90;;;;;;5000401;28;20241;-67
2023/01/29 07:52:13;;;;;;;10.68;7.65;;;3.10;99.90;;;;;;4990080;28;20285;-66
2023/01/29 07:54:41;;;;;;;10.80;7.47;;;3.20;99.90;;;;;;5004629;28;20271;-67
2023/01/29 07:57:09;;;;;;;11.30;7.43;;;3.20;99.90;;;;;;5012926;28;20189;-67
2023/01/29 07:59:38;;;;;;;14.52;8.52;;;3.10;99.90;;;;;;5008911;28;20675;-66
2023/01/29 08:02:08;;;;;;;13.88;8.43;;;3.20;99.90;;;;;;4994207;28;20734;-68
2023/01/29 08:04:37;;;;;;;14.30;7.55;;;3.10;99.90;;;;;;5003094;28;20302;-67
2023/01/29 08:07:05;;;;;;;11.32;7.75;;;3.10;99.90;;;;;;4999892;28;20278;-66
2023/01/29 08:09:35;;;;;;;14.45;8.77;;;3.10;99.90;;;;;;4998050;28;20231;-66
2023/01/29 08:12:04;;;;;;;10.60;7.95;;;3.10;99.90;;;;;;5002315;28;20296;-67
2023/01/29 08:14:32;;;;;;;13.55;8.75;;;3.10;99.90;;;;;;4991040;28;20271;-67
2023/01/29 08:17:01;;;;;;;13.82;8.40;;;3.10;99.90;;;;;;5000965;28;20191;-66
2023/01/29 08:19:29;;;;;;;11.93;7.90;;;3.10;99.90;;;;;;5022359;28;20230;-68
2023/01/29 08:21:57;;;;;;;10.48;7.93;;;3.10;99.90;;;;;;5009150;28;20252;-67
2023/01/29 08:24:26;;;;;;;11.23;7.10;;;3.10;99.90;;;;;;5011942;28;20768;-67
2023/01/29 08:27:16;;;;;;;16.23;9.32;;;3.10;99.90;;;;;;5001669;28;20185;-66
2023/01/29 08:29:44;;;;;;;12.45;8.05;;;3.10;99.90;;;;;;5000613;28;20221;-66
2023/01/29 08:32:12;;;;;;;14.45;9.27;;;3.10;99.90;;;;;;4990289;28;20201;-68
2023/01/29 08:34:41;;;;;;;12.50;7.60;;;3.10;99.90;;;;;;5009759;28;20217;-67
2023/01/29 08:37:09;;;;;;;13.13;7.10;;;3.10;99.90;;;;;;4995356;28;20193;-67
2023/01/29 08:39:38;;;;;;;10.50;6.78;;;3.10;99.90;;;;;;4995990;28;20218;-67
2023/01/29 08:42:06;;;;;;;12.23;6.90;;;3.10;99.90;;;;;;5006288;28;20224;-67
2023/01/29 08:44:36;;;;;;;9.98;7.35;;;3.10;99.90;;;;;;5002372;28;20246;-66
2023/01/29 08:47:04;;;;;;;14.00;7.72;;;3.10;99.90;;;;;;4998358;28;20186;-68
2023/01/29 08:49:32;;;;;;;10.80;6.75;;;3.10;99.90;;;;;;5010412;28;20272;-66
2023/01/29 08:52:01;;;;;;;11.35;7.35;;;3.10;99.90;;;;;;4995788;28;20222;-69
2023/01/29 08:54:31;;;;;;;12.15;7.93;;;3.10;99.90;;;;;;5003798;28;20244;-66
2023/01/29 08:56:59;;;;;;;12.00;7.85;;;3.10;99.90;;;;;;5012263;28;20208;-68
2023/01/29 08:59:27;;;;;;;9.82;7.53;;;3.10;99.90;;;;;;4993357;28;20232;-67
2023/01/29 09:01:57;;;;;;;10.07;6.20;;;3.10;99.90;;;;;;5003962;28;20428;-68
2023/01/29 09:04:25;;;;;;;12.23;7.18;;;3.10;99.90;;;;;;5001434;28;20621;-68
2023/01/29 09:06:54;;;;;;;11.90;8.23;;;3.10;99.90;;;;;;5009798;28;20271;-67
2023/01/29 09:09:22;;;;;;;11.98;6.97;;;3.10;99.90;;;;;;5005546;28;20573;-68
2023/01/29 09:11:51;;;;;;;12.20;7.93;;;3.10;99.90;;;;;;5003780;28;20303;-68
2023/01/29 09:14:19;;;;;;;10.93;6.75;;;3.10;99.90;;;;;;5022140;28;20248;-68
2023/01/29 09:16:48;;;;;;;11.63;6.78;;;3.10;99.90;;;;;;5001915;28;20348;-67
2023/01/29 09:19:18;;;;;;;10.80;7.25;;;3.10;99.90;;;;;;5007866;28;20222;-68
2023/01/29 09:21:46;;;;;;;11.50;7.22;;;3.10;99.90;;;;;;4997223;28;20194;-68
2023/01/29 09:24:15;;;;;;;11.65;7.38;;;3.10;99.90;;;;;;5005321;28;20216;-67
2023/01/29 09:26:43;;;;;;;11.30;7.57;;;3.10;99.90;;;;;;5021586;28;20197;-67
2023/01/29 09:29:12;;;;;;;10.15;7.10;;;3.10;99.90;;;;;;4999439;28;20285;-67
2023/01/29 09:31:40;;;;;;;11.95;8.10;;;3.10;99.90;;;;;;4998013;28;20190;-68
2023/01/29 09:34:09;;;;;;;11.52;7.10;;;3.10;99.90;;;;;;5000376;28;20745;-69
2023/01/29 09:36:38;;;;;;;13.52;7.03;;;3.10;99.90;;;;;;4994931;28;20209;-68
2023/01/29 09:39:07;;;;;;;9.07;6.45;;;3.10;99.90;;;;;;4997148;28;20224;-68
2023/01/29 09:41:48;;;;;;;11.65;7.47;;;3.10;99.90;;;;;;5003399;28;20541;-68
2023/01/29 09:44:24;;;;;;;12.57;7.25;;;3.10;99.90;;;;;;5015787;28;20568;-68
2023/01/29 09:46:54;;;;;;;11.43;7.07;;;3.10;99.90;;;;;;5004675;28;20277;-68
2023/01/29 09:49:26;;;;;;;11.32;7.30;;;3.00;99.90;;;;;;4991325;28;20933;-68
2023/01/29 09:52:01;;;;;;;12.43;7.53;;;3.10;99.90;;;;;;5008548;28;20255;-69
2023/01/29 09:54:33;;;;;;;11.05;7.50;;;3.10;99.90;;;;;;5003740;28;20232;-67
2023/01/29 09:57:02;;;;;;;9.52;6.80;;;3.00;99.90;;;;;;5022273;28;20276;-68
2023/01/29 09:59:31;;;;;;;10.30;6.82;;;3.10;99.90;;;;;;5005608;28;20221;-70
2023/01/29 10:02:09;;;;;;;16.05;9.60;;;3.10;99.90;;;;;;5018944;28;20197;-68
2023/01/29 10:05:02;;;;;;;11.65;7.63;;;3.10;99.90;;;;;;5007129;28;20237;-69
2023/01/29 10:07:47;;;;;;;17.10;10.18;;;3.10;99.90;;;;;;5017577;28;20295;-68
2023/01/29 10:10:30;;;;;;;11.95;7.60;;;3.00;99.90;;;;;;4998611;28;20218;-68
2023/01/29 10:13:07;;;;;;;10.90;6.90;;;3.00;99.90;;;;;;4989689;28;20252;-68
2023/01/29 10:15:44;;;;;;;10.45;7.47;;;3.00;99.90;;;;;;5015554;28;20471;-68
2023/01/29 10:18:33;;;;;;;7.80;5.53;;;3.00;99.90;;;;;;4998939;28;20190;-67
2023/01/29 10:21:12;;;;;;;11.77;6.95;;;3.00;99.90;;;;;;5001236;28;20234;-68
2023/01/29 10:23:47;;;;;;;10.18;7.07;;;3.00;99.90;;;;;;5000629;28;20907;-67
2023/01/29 10:26:17;;;;;;;13.18;9.75;;;3.00;99.90;;;;;;4997866;28;20839;-68
2023/01/29 10:28:49;;;;;;;18.95;10.30;;;3.00;99.90;;;;;;4993223;28;20201;-68
2023/01/29 10:31:20;;;;;;;11.30;6.50;;;3.00;99.90;;;;;;5001297;28;20200;-75
2023/01/29 10:33:52;;;;;;;13.57;8.98;;;3.00;99.90;;;;;;4999079;28;20221;-74
2023/01/29 10:36:41;;;;;;;9.30;6.85;;;3.10;99.90;;;;;;5004877;28;20189;-74
2023/01/29 10:39:17;;;;;;;11.60;7.75;;;3.00;99.90;;;;;;4991833;28;20304;-73
2023/01/29 10:42:16;;;;;;;11.85;7.35;;;3.00;99.90;;;;;;5022713;28;20280;-74
2023/01/29 10:44:55;;;;;;;12.10;7.22;;;3.00;99.90;;;;;;5010003;28;20268;-74
2023/01/29 10:48:03;;;;;;;12.35;8.13;;;3.10;99.90;;;;;;4994356;28;20200;-74
2023/01/29 10:50:45;;;;;;;12.15;7.07;;;3.00;99.90;;;;;;4926990;28;20735;-75
2023/01/29 10:53:31;;;;;;;9.75;6.40;;;3.10;99.90;;;;;;5004555;28;20215;-74
2023/01/29 10:56:11;;;;;;;8.73;5.53;;;3.10;99.90;;;;;;5003734;28;20253;-74
2023/01/29 10:58:53;;;;;;;9.40;5.70;;;3.10;99.90;;;;;;5013452;28;20276;-74
2023/01/29 11:01:21;;;;;;;12.27;7.30;;;3.10;99.90;;;;;;4989499;28;20222;-74
2023/01/29 11:03:58;;;;;;;9.90;5.93;;;3.10;99.90;;;;;;4996709;28;20287;-74
2023/01/29 11:06:31;;;;;;;10.32;7.20;;;3.10;99.90;;;;;;4997693;28;20211;-76
2023/01/29 11:09:05;;;;;;;9.98;6.38;;;3.00;99.90;;;;;;4997668;28;20201;-75
2023/01/29 11:11:41;;;;;;;9.73;6.45;;;3.10;99.90;;;;;;5004525;28;20763;-73
2023/01/29 11:14:14;;;;;;;9.23;5.55;;;3.00;99.90;;;;;;4997081;28;20229;-73
2023/01/29 11:16:45;;;;;;;19.45;10.75;;;3.10;99.90;;;;;;4998282;28;20194;-73
2023/01/29 11:19:14;;;;;;;9.35;6.55;;;3.00;99.90;;;;;;5017234;28;20215;-74
2023/01/29 11:21:58;;;;;;;9.52;6.90;;;3.00;99.90;;;;;;4999457;28;20602;-75
2023/01/29 11:24:27;;;;;;;8.50;5.47;;;3.10;99.90;;;;;;5012514;28;20343;-75
2023/01/29 11:26:59;;;;;;;12.23;8.00;;;3.10;99.90;;;;;;4994524;28;20220;-74
2023/01/29 11:29:37;;;;;;;10.98;6.60;;;3.00;99.90;;;;;;5012062;28;20225;-74
2023/01/29 11:32:08;;;;;;;9.15;6.30;;;3.10;99.90;;;;;;5012575;28;20197;-78
2023/01/29 11:34:57;;;;;;;12.10;7.63;;;3.00;99.90;;;;;;4996126;28;20320;-74
2023/01/29 11:37:33;;;;;;;11.50;7.03;;;3.10;99.90;;;;;;5001991;28;20209;-73
2023/01/29 11:40:22;;;;;;;8.70;5.63;;;3.10;99.90;;;;;;4999146;28;20221;-73
2023/01/29 11:42:52;;;;;;;8.70;5.95;;;3.10;99.90;;;;;;5015468;28;20208;-75
2023/01/29 11:45:26;;;;;;;9.23;6.30;;;3.10;99.90;;;;;;5023431;28;20221;-76
2023/01/29 11:47:56;;;;;;;15.82;8.07;;;3.00;99.90;;;;;;4995445;28;20222;-74
2023/01/29 11:50:27;;;;;;;12.13;6.85;;;3.10;99.90;;;;;;5000534;28;20227;-73
2023/01/29 11:52:56;;;;;;;9.00;5.32;;;3.00;99.90;;;;;;4998979;28;20965;-74
2023/01/29 11:55:27;;;;;;;12.48;7.78;;;3.10;99.90;;;;;;5000897;28;20221;-74
2023/01/29 11:58:13;;;;;;;9.35;6.55;;;3.10;99.90;;;;;;5003292;28;20200;-74
2023/01/29 12:00:46;;;;;;;7.95;6.20;;;3.00;99.90;;;;;;4999670;28;20235;-73
2023/01/29 12:03:21;;;;;;;7.53;5.43;;;3.00;99.90;;;;;;5002915;28;20206;-75
2023/01/29 12:06:01;;;;;;;7.22;5.78;;;3.00;99.90;;;;;;5021154;28;21013;-73
2023/01/29 12:08:34;;;;;;;9.93;5.57;;;3.00;99.90;;;;;;4994394;28;20194;-75
2023/01/29 12:11:09;;;;;;;8.02;5.07;;;3.00;99.90;;;;;;5005922;28;20233;-74
2023/01/29 12:13:41;;;;;;;9.65;5.95;;;3.10;99.90;;;;;;5015686;28;20255;-74
2023/01/29 12:16:19;;;;;;;8.10;6.10;;;3.00;99.90;;;;;;4997874;28;20192;-74
2023/01/29 12:18:51;;;;;;;9.73;6.97;;;3.10;99.90;;;;;;4996308;28;20216;-74
2023/01/29 12:21:27;;;;;;;10.00;6.60;;;3.10;99.90;;;;;;5012610;28;20192;-74
2023/01/29 12:24:00;;;;;;;9.95;6.40;;;3.10;99.90;;;;;;5001201;28;20213;-73
2023/01/29 12:26:33;;;;;;;8.57;5.53;;;3.00;99.90;;;;;;4998734;28;20212;-74
2023/01/29 12:29:19;;;;;;;7.13;5.10;;;3.00;99.90;;;;;;5013255;28;20230;-76
2023/01/29 12:31:55;;;;;;;7.07;5.53;;;3.00;99.90;;;;;;5011477;28;20263;-75
2023/01/29 12:34:30;;;;;;;8.48;4.70;;;3.00;99.90;;;;;;5004892;28;20574;-76
2023/01/29 12:37:06;;;;;;;9.20;5.00;;;3.00;99.90;;;;;;5001177;28;20314;-73
2023/01/29 12:39:36;;;;;;;8.10;5.68;;;3.00;99.90;;;;;;4992383;28;20216;-73
2023/01/29 12:42:12;;;;;;;8.13;5.22;;;3.00;99.90;;;;;;5003937;28;20215;-74
2023/01/29 12:44:46;;;;;;;6.30;5.25;;;3.00;99.90;;;;;;5006502;28;20271;-74
2023/01/29 12:47:20;;;;;;;8.48;5.72;;;3.10;99.90;;;;;;5005394;28;20685;-73
2023/01/29 12:49:52;;;;;;;8.13;5.82;;;3.00;99.90;;;;;;4998720;28;20221;-74
2023/01/29 12:52:28;;;;;;;8.55;4.90;;;3.00;99.90;;;;;;5002260;28;20213;-73
2023/01/29 12:55:00;;;;;;;7.15;5.65;;;3.00;99.90;;;;;;5008497;28;20602;-73
2023/01/29 12:57:40;;;;;;;7.25;5.53;;;3.00;99.90;;;;;;5004218;28;20214;-74
2023/01/29 13:00:14;;;;;;;6.53;4.70;;;3.10;99.90;;;;;;4995522;28;20221;-73
2023/01/29 13:02:52;;;;;;;8.23;5.25;;;3.00;99.90;;;;;;5003792;28;20200;-74
2023/01/29 13:05:26;;;;;;;6.97;5.15;;;3.00;99.90;;;;;;5000171;28;20634;-74
2023/01/29 13:07:58;;;;;;;7.35;4.55;;;3.00;99.90;;;;;;4993655;28;20183;-74
2023/01/29 13:10:32;;;;;;;9.57;5.03;;;3.10;99.90;;;;;;5013264;28;20329;-73
2023/01/29 13:13:05;;;;;;;6.53;4.50;;;3.00;99.90;;;;;;5001359;28;20689;-74
2023/01/29 13:15:38;;;;;;;9.02;5.15;;;3.00;99.90;;;;;;4996160;28;20285;-74
2023/01/29 13:18:40;;;;;;;5.90;4.20;;;3.00;99.90;;;;;;5028441;28;20178;-75
2023/01/29 13:21:14;;;;;;;6.03;5.10;;;3.00;99.90;;;;;;5013753;28;20251;-76
2023/01/29 13:23:46;;;;;;;7.03;4.50;;;3.00;99.90;;;;;;5002343;28;20319;-73
2023/01/29 13:26:18;;;;;;;7.63;4.35;;;3.00;99.90;;;;;;5001675;28;20285;-75
2023/01/29 13:28:47;;;;;;;7.32;4.97;;;3.00;99.90;;;;;;5011985;28;21028;-74
2023/01/29 13:31:27;;;;;;;9.20;5.53;;;3.00;99.90;;;;;;5002369;28;20233;-67
2023/01/29 13:34:06;;;;;;;6.95;4.97;;;3.00;99.90;;;;;;5020870;28;20221;-68
2023/01/29 13:36:36;;;;;;;5.70;4.63;;;3.00;99.90;;;;;;5018415;28;20207;-69